PWSweather.com
Personal Weather Stations
Station Observations

ChardChardGB

Lat: 50.877408, Lon: -2.94964741

Elevation: 341

Station Type: WS3083

http://www.merriott-astro.co.uk/weather/index.htm

High Low Average
Temperature 46.8°F8.2°C 34.2°F1.2°C 39.4°F4.1°C
Dew Point 39.5°F4.2°C 28.8°F-1.8°C 33.5°F0.8°C
Winds 10.7 mph 17.2 kmh Calm Calm 3.0 mph SE4.8 kmh SE
Wind Gusts 10.7 mph17.2 kmh -- 4.0 mph6.4 kmh
Humidity 85% 71% 80%
Pressure 29.76 in1007.8 mb 29.27 in991.2 mb -
Precipitation 0.00 in0.0 mm - -
Hour Temp Dew Point Humidity Winds Wind Gusts Pressure Precip Precip Rate Daily Precip Total
12:05 AM 43.7°F6.5°C 38.6°F3.7°C 82% 6.0 mph E9.7 kmh E 6.0 mph9.7 kmh 29.31 in992.6 mb 0.00 in0.0 mm 0.00 in0.0 mm 0.00 in0.0 mm
12:35 AM 43.9°F6.6°C 38.4°F3.6°C 81% 4.5 mph E7.2 kmh E 4.5 mph7.2 kmh 29.32 in992.9 mb 0.00 in0.0 mm 0.00 in0.0 mm 0.00 in0.0 mm
01:05 AM 44.4°F6.9°C 38.6°F3.7°C 80% 6.0 mph E9.7 kmh E 6.0 mph9.7 kmh 29.32 in992.9 mb 0.00 in0.0 mm 0.00 in0.0 mm 0.00 in0.0 mm
01:35 AM 44.6°F7.0°C 38.8°F3.8°C 80% 1.6 mph SE2.6 kmh SE 1.6 mph2.6 kmh 29.32 in992.9 mb 0.00 in0.0 mm 0.00 in0.0 mm 0.00 in0.0 mm
02:05 AM 45.0°F7.2°C 39.2°F4.0°C 80% 6.9 mph E11.1 kmh E 6.9 mph11.1 kmh 29.32 in992.9 mb 0.00 in0.0 mm 0.00 in0.0 mm 0.00 in0.0 mm
02:35 AM 45.3°F7.4°C 39.5°F4.2°C 80% 3.8 mph NE6.1 kmh NE 3.8 mph6.1 kmh 29.33 in993.2 mb 0.00 in0.0 mm 0.00 in0.0 mm 0.00 in0.0 mm
03:05 AM 45.7°F7.6°C 37.9°F3.3°C 74% 3.8 mph SE6.1 kmh SE 3.8 mph6.1 kmh 29.32 in992.9 mb 0.00 in0.0 mm 0.00 in0.0 mm 0.00 in0.0 mm
03:35 AM 46.0°F7.8°C 38.2°F3.4°C 74% 6.0 mph E9.7 kmh E 6.0 mph9.7 kmh 29.32 in992.9 mb 0.00 in0.0 mm 0.00 in0.0 mm 0.00 in0.0 mm
04:05 AM 45.9°F7.7°C 38.0°F3.3°C 74% 4.5 mph NE7.2 kmh NE 4.5 mph7.2 kmh 29.31 in992.6 mb 0.00 in0.0 mm 0.00 in0.0 mm 0.00 in0.0 mm
04:35 AM 46.0°F7.8°C 38.6°F3.7°C 75% 2.2 mph NW3.5 kmh NW 2.2 mph3.5 kmh 29.30 in992.2 mb 0.00 in0.0 mm 0.00 in0.0 mm 0.00 in0.0 mm
05:05 AM 46.4°F8.0°C 38.6°F3.7°C 74% 3.8 mph SE6.1 kmh SE 3.8 mph6.1 kmh 29.29 in991.9 mb 0.00 in0.0 mm 0.00 in0.0 mm 0.00 in0.0 mm
05:35 AM 46.8°F8.2°C 38.9°F3.8°C 74% 3.8 mph N6.1 kmh N 3.8 mph6.1 kmh 29.29 in991.9 mb 0.00 in0.0 mm 0.00 in0.0 mm 0.00 in0.0 mm
06:05 AM 46.6°F8.1°C 38.4°F3.6°C 73% 5.4 mph NE8.7 kmh NE 5.4 mph8.7 kmh 29.28 in991.5 mb 0.00 in0.0 mm 0.00 in0.0 mm 0.00 in0.0 mm
06:35 AM 46.4°F8.0°C 38.2°F3.4°C 73% 6.9 mph NE11.1 kmh NE 6.9 mph11.1 kmh 29.28 in991.5 mb 0.00 in0.0 mm 0.00 in0.0 mm 0.00 in0.0 mm
07:05 AM 46.0°F7.8°C 37.5°F3.1°C 72% 7.6 mph ENE12.2 kmh ENE 7.6 mph12.2 kmh 29.27 in991.2 mb 0.00 in0.0 mm 0.00 in0.0 mm 0.00 in0.0 mm
07:35 AM 45.9°F7.7°C 37.3°F2.9°C 72% 3.8 mph N6.1 kmh N 3.8 mph6.1 kmh 29.30 in992.2 mb 0.00 in0.0 mm 0.00 in0.0 mm 0.00 in0.0 mm
08:05 AM 45.5°F7.5°C 36.6°F2.6°C 71% 2.2 mph E3.5 kmh E 2.2 mph3.5 kmh 29.29 in991.9 mb 0.00 in0.0 mm 0.00 in0.0 mm 0.00 in0.0 mm
08:35 AM 45.0°F7.2°C 38.2°F3.4°C 77% 6.0 mph ENE9.7 kmh ENE 6.0 mph9.7 kmh 29.29 in991.9 mb 0.00 in0.0 mm 0.00 in0.0 mm 0.00 in0.0 mm
09:05 AM 44.8°F7.1°C 38.0°F3.3°C 77% 4.5 mph SE7.2 kmh SE 4.5 mph7.2 kmh 29.29 in991.9 mb 0.00 in0.0 mm 0.00 in0.0 mm 0.00 in0.0 mm
09:35 AM 44.4°F6.9°C 37.3°F2.9°C 76% 6.0 mph N9.7 kmh N 6.0 mph9.7 kmh 29.31 in992.6 mb 0.00 in0.0 mm 0.00 in0.0 mm 0.00 in0.0 mm
10:05 AM 43.9°F6.6°C 36.5°F2.5°C 75% 5.4 mph SE8.7 kmh SE 5.4 mph8.7 kmh 29.32 in992.9 mb 0.00 in0.0 mm 0.00 in0.0 mm 0.00 in0.0 mm
10:35 AM 43.5°F6.4°C 35.8°F2.1°C 74% 9.8 mph E15.8 kmh E 9.8 mph15.8 kmh 29.32 in992.9 mb 0.00 in0.0 mm 0.00 in0.0 mm 0.00 in0.0 mm
11:05 AM 43.0°F6.1°C 35.9°F2.2°C 76% 5.4 mph NE8.7 kmh NE 5.4 mph8.7 kmh 29.33 in993.2 mb 0.00 in0.0 mm 0.00 in0.0 mm 0.00 in0.0 mm
11:35 AM 42.6°F5.9°C 35.9°F2.2°C 77% 6.0 mph NE9.7 kmh NE 6.0 mph9.7 kmh 29.33 in993.2 mb 0.00 in0.0 mm 0.00 in0.0 mm 0.00 in0.0 mm
12:05 PM 42.4°F5.8°C 36.1°F2.3°C 78% 6.0 mph NE9.7 kmh NE 6.0 mph9.7 kmh 29.35 in993.9 mb 0.00 in0.0 mm 0.00 in0.0 mm 0.00 in0.0 mm
12:35 PM 41.9°F5.5°C 35.9°F2.2°C 79% 3.1 mph NE5.0 kmh NE 3.1 mph5.0 kmh 29.35 in993.9 mb 0.00 in0.0 mm 0.00 in0.0 mm 0.00 in0.0 mm
01:05 PM 41.9°F5.5°C 36.2°F2.3°C 80% 8.3 mph NE13.4 kmh NE 8.3 mph13.4 kmh 29.35 in993.9 mb 0.00 in0.0 mm 0.00 in0.0 mm 0.00 in0.0 mm
01:35 PM 41.9°F5.5°C 35.9°F2.2°C 79% 5.4 mph NE8.7 kmh NE 5.4 mph8.7 kmh 29.35 in993.9 mb 0.00 in0.0 mm 0.00 in0.0 mm 0.00 in0.0 mm
02:05 PM 41.0°F5.0°C 35.3°F1.8°C 80% 5.4 mph N8.7 kmh N 5.4 mph8.7 kmh 29.36 in994.2 mb 0.00 in0.0 mm 0.00 in0.0 mm 0.00 in0.0 mm
02:35 PM 40.1°F4.5°C 34.7°F1.5°C 81% 6.9 mph NE11.1 kmh NE 6.9 mph11.1 kmh 29.36 in994.2 mb 0.00 in0.0 mm 0.00 in0.0 mm 0.00 in0.0 mm
03:05 PM 39.7°F4.3°C 34.4°F1.3°C 81% 5.4 mph NE8.7 kmh NE 5.4 mph8.7 kmh 29.37 in994.6 mb 0.00 in0.0 mm 0.00 in0.0 mm 0.00 in0.0 mm
03:35 PM 39.4°F4.1°C 34.3°F1.3°C 82% 10.7 mph N17.2 kmh N 10.7 mph17.2 kmh 29.38 in994.9 mb 0.00 in0.0 mm 0.00 in0.0 mm 0.00 in0.0 mm
04:05 PM 38.7°F3.7°C 33.9°F1.1°C 83% 8.3 mph NE13.4 kmh NE 8.3 mph13.4 kmh 29.37 in994.6 mb 0.00 in0.0 mm 0.00 in0.0 mm 0.00 in0.0 mm
04:35 PM 38.1°F3.4°C 33.7°F0.9°C 84% 8.3 mph NE13.4 kmh NE 8.3 mph13.4 kmh 29.36 in994.2 mb 0.00 in0.0 mm 0.00 in0.0 mm 0.00 in0.0 mm
05:05 PM 37.8°F3.2°C 33.7°F0.9°C 85% 6.9 mph NE11.1 kmh NE 6.9 mph11.1 kmh 29.36 in994.2 mb 0.00 in0.0 mm 0.00 in0.0 mm 0.00 in0.0 mm
05:30 PM 36.5°F2.5°C 30.6°F-0.8°C 79% Calm Calm -- 29.75 in1007.5 mb 0.00 in0.0 mm 0.00 in0.0 mm 0.00 in0.0 mm
05:40 PM 36.7°F2.6°C 31.1°F-0.5°C 80% 0.9 mph S1.4 kmh S 2.2 mph3.5 kmh 29.75 in1007.5 mb 0.00 in0.0 mm 0.00 in0.0 mm 0.00 in0.0 mm
05:50 PM 37.2°F2.9°C 31.6°F-0.2°C 80% 1.8 mph S2.9 kmh S 3.1 mph5.0 kmh 29.75 in1007.5 mb 0.00 in0.0 mm 0.00 in0.0 mm 0.00 in0.0 mm
06:00 PM 37.0°F2.8°C 31.5°F-0.3°C 80% 0.3 mph SE0.5 kmh SE 0.7 mph1.1 kmh 29.75 in1007.5 mb 0.00 in0.0 mm 0.00 in0.0 mm 0.00 in0.0 mm
06:10 PM 36.9°F2.7°C 31.3°F-0.4°C 80% 1.9 mph S3.1 kmh S 3.1 mph5.0 kmh 29.75 in1007.5 mb 0.00 in0.0 mm 0.00 in0.0 mm 0.00 in0.0 mm
06:20 PM 36.9°F2.7°C 31.3°F-0.4°C 80% 2.2 mph S3.5 kmh S 3.1 mph5.0 kmh 29.75 in1007.5 mb 0.00 in0.0 mm 0.00 in0.0 mm 0.00 in0.0 mm
06:30 PM 36.3°F2.4°C 30.8°F-0.7°C 80% 0.5 mph SSW0.8 kmh SSW 3.1 mph5.0 kmh 29.75 in1007.5 mb 0.00 in0.0 mm 0.00 in0.0 mm 0.00 in0.0 mm
06:40 PM 36.0°F2.2°C 30.4°F-0.9°C 80% 0.1 mph SSE0.2 kmh SSE 0.7 mph1.1 kmh 29.76 in1007.8 mb 0.00 in0.0 mm 0.00 in0.0 mm 0.00 in0.0 mm
06:50 PM 36.3°F2.4°C 30.8°F-0.7°C 80% 1.9 mph S3.1 kmh S 3.1 mph5.0 kmh 29.75 in1007.5 mb 0.00 in0.0 mm 0.00 in0.0 mm 0.00 in0.0 mm
07:00 PM 36.5°F2.5°C 31.2°F-0.4°C 81% 2.7 mph S4.3 kmh S 3.8 mph6.1 kmh 29.75 in1007.5 mb 0.00 in0.0 mm 0.00 in0.0 mm 0.00 in0.0 mm
07:10 PM 36.3°F2.4°C 30.8°F-0.7°C 80% 3.1 mph S5.0 kmh S 3.8 mph6.1 kmh 29.76 in1007.8 mb 0.00 in0.0 mm 0.00 in0.0 mm 0.00 in0.0 mm
07:20 PM 35.8°F2.1°C 30.2°F-1.0°C 80% 0.8 mph S1.3 kmh S 1.6 mph2.6 kmh 29.76 in1007.8 mb 0.00 in0.0 mm 0.00 in0.0 mm 0.00 in0.0 mm
07:30 PM 35.2°F1.8°C 29.7°F-1.3°C 80% 0.5 mph SW0.8 kmh SW 1.6 mph2.6 kmh 29.75 in1007.5 mb 0.00 in0.0 mm 0.00 in0.0 mm 0.00 in0.0 mm
07:40 PM 34.7°F1.5°C 29.2°F-1.6°C 80% 0.1 mph SW0.2 kmh SW 0.7 mph1.1 kmh 29.76 in1007.8 mb 0.00 in0.0 mm 0.00 in0.0 mm 0.00 in0.0 mm
07:50 PM 34.3°F1.3°C 28.8°F-1.8°C 80% 0.1 mph NW0.2 kmh NW 1.6 mph2.6 kmh 29.75 in1007.5 mb 0.00 in0.0 mm 0.00 in0.0 mm 0.00 in0.0 mm
08:00 PM 34.2°F1.2°C 29.0°F-1.7°C 81% 0.3 mph NW0.5 kmh NW 1.6 mph2.6 kmh 29.75 in1007.5 mb 0.00 in0.0 mm 0.00 in0.0 mm 0.00 in0.0 mm
08:10 PM 34.2°F1.2°C 29.0°F-1.7°C 81% Calm Calm -- 29.75 in1007.5 mb 0.00 in0.0 mm 0.00 in0.0 mm 0.00 in0.0 mm
08:20 PM 34.3°F1.3°C 29.4°F-1.4°C 82% 0.2 mph S0.3 kmh S 0.7 mph1.1 kmh 29.76 in1007.8 mb 0.00 in0.0 mm 0.00 in0.0 mm 0.00 in0.0 mm
08:30 PM 34.7°F1.5°C 30.1°F-1.1°C 83% 0.7 mph S1.1 kmh S 1.6 mph2.6 kmh 29.75 in1007.5 mb 0.00 in0.0 mm 0.00 in0.0 mm 0.00 in0.0 mm
08:40 PM 35.2°F1.8°C 30.6°F-0.8°C 83% 1.2 mph S1.9 kmh S 2.2 mph3.5 kmh 29.76 in1007.8 mb 0.00 in0.0 mm 0.00 in0.0 mm 0.00 in0.0 mm
08:50 PM 35.6°F2.0°C 31.0°F-0.6°C 83% 1.1 mph S1.8 kmh S 2.2 mph3.5 kmh 29.76 in1007.8 mb 0.00 in0.0 mm 0.00 in0.0 mm 0.00 in0.0 mm
09:00 PM 35.4°F1.9°C 30.5°F-0.8°C 82% 0.4 mph ESE0.6 kmh ESE 0.7 mph1.1 kmh 29.75 in1007.5 mb 0.00 in0.0 mm 0.00 in0.0 mm 0.00 in0.0 mm
09:10 PM 35.1°F1.7°C 30.1°F-1.1°C 82% 1.6 mph S2.6 kmh S 2.2 mph3.5 kmh 29.75 in1007.5 mb 0.00 in0.0 mm 0.00 in0.0 mm 0.00 in0.0 mm
09:20 PM 35.1°F1.7°C 30.1°F-1.1°C 82% 1.8 mph S2.9 kmh S 3.8 mph6.1 kmh 29.75 in1007.5 mb 0.00 in0.0 mm 0.00 in0.0 mm 0.00 in0.0 mm
09:30 PM 35.2°F1.8°C 30.3°F-0.9°C 82% 1.5 mph S2.4 kmh S 3.1 mph5.0 kmh 29.76 in1007.8 mb 0.00 in0.0 mm 0.00 in0.0 mm 0.00 in0.0 mm
09:40 PM 35.2°F1.8°C 30.3°F-0.9°C 82% 1.3 mph S2.1 kmh S 3.1 mph5.0 kmh 29.75 in1007.5 mb 0.00 in0.0 mm 0.00 in0.0 mm 0.00 in0.0 mm
09:50 PM 34.9°F1.6°C 30.0°F-1.1°C 82% 0.7 mph NW1.1 kmh NW 1.6 mph2.6 kmh 29.75 in1007.5 mb 0.00 in0.0 mm 0.00 in0.0 mm 0.00 in0.0 mm
10:00 PM 34.7°F1.5°C 29.8°F-1.2°C 82% 0.4 mph SW0.6 kmh SW 0.7 mph1.1 kmh 29.75 in1007.5 mb 0.00 in0.0 mm 0.00 in0.0 mm 0.00 in0.0 mm
10:10 PM 34.7°F1.5°C 29.8°F-1.2°C 82% Calm Calm -- 29.76 in1007.8 mb 0.00 in0.0 mm 0.00 in0.0 mm 0.00 in0.0 mm
10:20 PM 34.9°F1.6°C 30.0°F-1.1°C 82% 1.1 mph S1.8 kmh S 3.1 mph5.0 kmh 29.75 in1007.5 mb 0.00 in0.0 mm 0.00 in0.0 mm 0.00 in0.0 mm
10:30 PM 35.1°F1.7°C 30.4°F-0.9°C 83% Calm Calm -- 29.75 in1007.5 mb 0.00 in0.0 mm 0.00 in0.0 mm 0.00 in0.0 mm
10:40 PM 35.1°F1.7°C 30.4°F-0.9°C 83% 0.2 mph S0.3 kmh S 0.7 mph1.1 kmh 29.75 in1007.5 mb 0.00 in0.0 mm 0.00 in0.0 mm 0.00 in0.0 mm
10:50 PM 35.6°F2.0°C 31.0°F-0.6°C 83% 2.5 mph SSW4.0 kmh SSW 3.8 mph6.1 kmh 29.75 in1007.5 mb 0.00 in0.0 mm 0.00 in0.0 mm 0.00 in0.0 mm
11:00 PM 35.8°F2.1°C 30.8°F-0.7°C 82% 0.9 mph SE1.4 kmh SE 3.1 mph5.0 kmh 29.75 in1007.5 mb 0.00 in0.0 mm 0.00 in0.0 mm 0.00 in0.0 mm
11:10 PM 36.0°F2.2°C 31.0°F-0.6°C 82% 0.3 mph S0.5 kmh S 0.7 mph1.1 kmh 29.74 in1007.1 mb 0.00 in0.0 mm 0.00 in0.0 mm 0.00 in0.0 mm
11:20 PM 36.0°F2.2°C 31.0°F-0.6°C 82% 0.3 mph SW0.5 kmh SW 0.7 mph1.1 kmh 29.74 in1007.1 mb 0.00 in0.0 mm 0.00 in0.0 mm 0.00 in0.0 mm
11:30 PM 36.3°F2.4°C 31.4°F-0.3°C 82% 1.5 mph S2.4 kmh S 3.1 mph5.0 kmh 29.75 in1007.5 mb 0.00 in0.0 mm 0.00 in0.0 mm 0.00 in0.0 mm
11:40 PM 36.5°F2.5°C 31.5°F-0.3°C 82% 1.2 mph S1.9 kmh S 2.2 mph3.5 kmh 29.74 in1007.1 mb 0.00 in0.0 mm 0.00 in0.0 mm 0.00 in0.0 mm
11:50 PM 36.7°F2.6°C 31.4°F-0.3°C 81% 0.6 mph S1.0 kmh S 1.6 mph2.6 kmh 29.74 in1007.1 mb 0.00 in0.0 mm 0.00 in0.0 mm 0.00 in0.0 mm